sensor_id;sensor_type;location;lat;lon;timestamp;P1;durP1;ratioP1;P2;durP2;ratioP2
61840;SDS011;47773;53.174;6.614;2023-05-07T00:02:06;27.92;;;17.40;;
61840;SDS011;47773;53.174;6.614;2023-05-07T00:04:32;27.60;;;16.92;;
61840;SDS011;47773;53.174;6.614;2023-05-07T00:07:02;31.02;;;17.40;;
61840;SDS011;47773;53.174;6.614;2023-05-07T00:09:28;27.33;;;17.30;;
61840;SDS011;47773;53.174;6.614;2023-05-07T00:11:53;24.98;;;17.35;;
61840;SDS011;47773;53.174;6.614;2023-05-07T00:14:19;29.35;;;17.50;;
61840;SDS011;47773;53.174;6.614;2023-05-07T00:16:45;32.13;;;17.40;;
61840;SDS011;47773;53.174;6.614;2023-05-07T00:19:11;32.25;;;16.88;;
61840;SDS011;47773;53.174;6.614;2023-05-07T00:21:37;28.00;;;16.30;;
61840;SDS011;47773;53.174;6.614;2023-05-07T00:24:03;27.02;;;17.75;;
61840;SDS011;47773;53.174;6.614;2023-05-07T00:26:29;28.65;;;16.67;;
61840;SDS011;47773;53.174;6.614;2023-05-07T00:28:55;26.77;;;17.33;;
61840;SDS011;47773;53.174;6.614;2023-05-07T00:31:20;29.52;;;16.25;;
61840;SDS011;47773;53.174;6.614;2023-05-07T00:33:46;28.65;;;16.95;;
61840;SDS011;47773;53.174;6.614;2023-05-07T00:36:11;28.88;;;18.13;;
61840;SDS011;47773;53.174;6.614;2023-05-07T00:38:37;29.60;;;17.88;;
61840;SDS011;47773;53.174;6.614;2023-05-07T00:41:03;28.02;;;17.08;;
61840;SDS011;47773;53.174;6.614;2023-05-07T00:43:29;28.73;;;17.70;;
61840;SDS011;47773;53.174;6.614;2023-05-07T00:45:54;28.10;;;17.23;;
61840;SDS011;47773;53.174;6.614;2023-05-07T00:48:20;27.58;;;16.80;;
61840;SDS011;47773;53.174;6.614;2023-05-07T00:50:46;29.15;;;18.38;;
61840;SDS011;47773;53.174;6.614;2023-05-07T00:53:13;31.40;;;19.17;;
61840;SDS011;47773;53.174;6.614;2023-05-07T00:55:39;31.40;;;18.77;;
61840;SDS011;47773;53.174;6.614;2023-05-07T00:58:05;29.20;;;18.58;;
61840;SDS011;47773;53.174;6.614;2023-05-07T01:00:31;29.48;;;17.38;;
61840;SDS011;47773;53.174;6.614;2023-05-07T01:02:57;28.67;;;18.67;;
61840;SDS011;47773;53.174;6.614;2023-05-07T01:05:23;33.75;;;19.08;;
61840;SDS011;47773;53.174;6.614;2023-05-07T01:07:50;28.63;;;19.38;;
61840;SDS011;47773;53.174;6.614;2023-05-07T01:10:18;32.33;;;19.02;;
61840;SDS011;47773;53.174;6.614;2023-05-07T01:12:45;36.00;;;19.95;;
61840;SDS011;47773;53.174;6.614;2023-05-07T01:15:13;29.67;;;18.25;;
61840;SDS011;47773;53.174;6.614;2023-05-07T01:17:40;32.03;;;17.90;;
61840;SDS011;47773;53.174;6.614;2023-05-07T01:20:07;31.95;;;19.35;;
61840;SDS011;47773;53.174;6.614;2023-05-07T01:22:35;29.33;;;18.65;;
61840;SDS011;47773;53.174;6.614;2023-05-07T01:25:02;30.75;;;19.05;;
61840;SDS011;47773;53.174;6.614;2023-05-07T01:27:29;35.85;;;19.05;;
61840;SDS011;47773;53.174;6.614;2023-05-07T01:29:55;32.45;;;19.98;;
61840;SDS011;47773;53.174;6.614;2023-05-07T01:32:22;32.38;;;19.90;;
61840;SDS011;47773;53.174;6.614;2023-05-07T01:35:01;30.52;;;19.88;;
61840;SDS011;47773;53.174;6.614;2023-05-07T01:37:30;32.65;;;19.67;;
61840;SDS011;47773;53.174;6.614;2023-05-07T01:39:55;36.58;;;20.67;;
61840;SDS011;47773;53.174;6.614;2023-05-07T01:42:22;31.13;;;20.55;;
61840;SDS011;47773;53.174;6.614;2023-05-07T01:44:48;33.65;;;20.90;;
61840;SDS011;47773;53.174;6.614;2023-05-07T01:47:14;30.83;;;19.85;;
61840;SDS011;47773;53.174;6.614;2023-05-07T01:49:40;30.83;;;19.92;;
61840;SDS011;47773;53.174;6.614;2023-05-07T01:52:06;32.15;;;20.55;;
61840;SDS011;47773;53.174;6.614;2023-05-07T01:54:33;31.20;;;18.85;;
61840;SDS011;47773;53.174;6.614;2023-05-07T01:56:59;41.30;;;20.33;;
61840;SDS011;47773;53.174;6.614;2023-05-07T01:59:25;28.17;;;18.38;;
61840;SDS011;47773;53.174;6.614;2023-05-07T02:01:50;31.90;;;20.35;;
61840;SDS011;47773;53.174;6.614;2023-05-07T02:04:17;30.58;;;20.73;;
61840;SDS011;47773;53.174;6.614;2023-05-07T02:06:42;32.85;;;20.48;;
61840;SDS011;47773;53.174;6.614;2023-05-07T02:09:08;28.52;;;19.88;;
61840;SDS011;47773;53.174;6.614;2023-05-07T02:11:34;34.25;;;20.88;;
61840;SDS011;47773;53.174;6.614;2023-05-07T02:13:59;34.53;;;20.88;;
61840;SDS011;47773;53.174;6.614;2023-05-07T02:16:25;35.45;;;20.58;;
61840;SDS011;47773;53.174;6.614;2023-05-07T02:18:51;33.70;;;20.73;;
61840;SDS011;47773;53.174;6.614;2023-05-07T02:21:16;33.10;;;20.83;;
61840;SDS011;47773;53.174;6.614;2023-05-07T02:23:42;32.67;;;20.88;;
61840;SDS011;47773;53.174;6.614;2023-05-07T02:26:08;35.70;;;20.90;;
61840;SDS011;47773;53.174;6.614;2023-05-07T02:28:35;34.53;;;21.08;;
61840;SDS011;47773;53.174;6.614;2023-05-07T02:31:04;39.33;;;22.08;;
61840;SDS011;47773;53.174;6.614;2023-05-07T02:33:29;38.28;;;21.48;;
61840;SDS011;47773;53.174;6.614;2023-05-07T02:35:55;38.10;;;22.05;;
61840;SDS011;47773;53.174;6.614;2023-05-07T02:38:21;38.72;;;21.05;;
61840;SDS011;47773;53.174;6.614;2023-05-07T02:40:47;37.03;;;21.08;;
61840;SDS011;47773;53.174;6.614;2023-05-07T02:43:13;35.70;;;20.83;;
61840;SDS011;47773;53.174;6.614;2023-05-07T02:45:39;36.88;;;20.33;;
61840;SDS011;47773;53.174;6.614;2023-05-07T02:48:04;32.05;;;20.55;;
61840;SDS011;47773;53.174;6.614;2023-05-07T02:50:33;30.92;;;20.15;;
61840;SDS011;47773;53.174;6.614;2023-05-07T02:52:59;34.40;;;21.58;;
61840;SDS011;47773;53.174;6.614;2023-05-07T02:55:25;36.70;;;20.63;;
61840;SDS011;47773;53.174;6.614;2023-05-07T02:57:50;37.03;;;21.35;;
61840;SDS011;47773;53.174;6.614;2023-05-07T03:00:17;36.83;;;21.65;;
61840;SDS011;47773;53.174;6.614;2023-05-07T03:02:44;37.78;;;20.85;;
61840;SDS011;47773;53.174;6.614;2023-05-07T03:05:10;35.58;;;21.40;;
61840;SDS011;47773;53.174;6.614;2023-05-07T03:07:36;36.45;;;21.38;;
61840;SDS011;47773;53.174;6.614;2023-05-07T03:10:02;36.22;;;21.48;;
61840;SDS011;47773;53.174;6.614;2023-05-07T03:12:28;38.20;;;21.92;;
61840;SDS011;47773;53.174;6.614;2023-05-07T03:14:54;36.10;;;21.52;;
61840;SDS011;47773;53.174;6.614;2023-05-07T03:17:20;37.53;;;21.85;;
61840;SDS011;47773;53.174;6.614;2023-05-07T03:19:46;35.45;;;21.83;;
61840;SDS011;47773;53.174;6.614;2023-05-07T03:22:12;33.88;;;21.45;;
61840;SDS011;47773;53.174;6.614;2023-05-07T03:24:37;36.40;;;20.83;;
61840;SDS011;47773;53.174;6.614;2023-05-07T03:27:03;36.95;;;21.98;;
61840;SDS011;47773;53.174;6.614;2023-05-07T03:29:29;35.22;;;21.00;;
61840;SDS011;47773;53.174;6.614;2023-05-07T03:31:54;35.55;;;21.88;;
61840;SDS011;47773;53.174;6.614;2023-05-07T03:34:20;41.72;;;22.10;;
61840;SDS011;47773;53.174;6.614;2023-05-07T03:36:50;35.25;;;21.67;;
61840;SDS011;47773;53.174;6.614;2023-05-07T03:39:16;34.90;;;21.85;;
61840;SDS011;47773;53.174;6.614;2023-05-07T03:41:41;37.15;;;22.10;;
61840;SDS011;47773;53.174;6.614;2023-05-07T03:44:07;38.70;;;22.02;;
61840;SDS011;47773;53.174;6.614;2023-05-07T03:46:33;37.63;;;22.17;;
61840;SDS011;47773;53.174;6.614;2023-05-07T03:48:59;38.00;;;21.35;;
61840;SDS011;47773;53.174;6.614;2023-05-07T03:51:25;36.42;;;21.70;;
61840;SDS011;47773;53.174;6.614;2023-05-07T03:53:51;35.95;;;22.70;;
61840;SDS011;47773;53.174;6.614;2023-05-07T03:56:22;37.03;;;21.83;;
61840;SDS011;47773;53.174;6.614;2023-05-07T03:58:48;36.15;;;20.95;;
61840;SDS011;47773;53.174;6.614;2023-05-07T04:01:13;34.60;;;21.10;;
61840;SDS011;47773;53.174;6.614;2023-05-07T04:03:39;38.00;;;21.58;;
61840;SDS011;47773;53.174;6.614;2023-05-07T04:06:05;37.95;;;21.90;;
61840;SDS011;47773;53.174;6.614;2023-05-07T04:08:31;36.90;;;22.33;;
61840;SDS011;47773;53.174;6.614;2023-05-07T04:10:57;35.90;;;23.08;;
61840;SDS011;47773;53.174;6.614;2023-05-07T04:13:23;38.15;;;21.60;;
61840;SDS011;47773;53.174;6.614;2023-05-07T04:15:50;37.15;;;21.88;;
61840;SDS011;47773;53.174;6.614;2023-05-07T04:18:16;34.22;;;21.95;;
61840;SDS011;47773;53.174;6.614;2023-05-07T04:20:42;40.67;;;23.40;;
61840;SDS011;47773;53.174;6.614;2023-05-07T04:23:08;37.28;;;22.60;;
61840;SDS011;47773;53.174;6.614;2023-05-07T04:25:34;34.13;;;21.75;;
61840;SDS011;47773;53.174;6.614;2023-05-07T04:27:59;38.65;;;22.70;;
61840;SDS011;47773;53.174;6.614;2023-05-07T04:30:25;40.65;;;23.52;;
61840;SDS011;47773;53.174;6.614;2023-05-07T04:32:51;41.55;;;22.38;;
61840;SDS011;47773;53.174;6.614;2023-05-07T04:35:17;35.13;;;20.75;;
61840;SDS011;47773;53.174;6.614;2023-05-07T04:37:43;35.25;;;22.65;;
61840;SDS011;47773;53.174;6.614;2023-05-07T04:40:09;33.42;;;21.08;;
61840;SDS011;47773;53.174;6.614;2023-05-07T04:42:35;35.10;;;21.52;;
61840;SDS011;47773;53.174;6.614;2023-05-07T04:45:01;34.10;;;20.63;;
61840;SDS011;47773;53.174;6.614;2023-05-07T04:47:27;35.72;;;20.38;;
61840;SDS011;47773;53.174;6.614;2023-05-07T04:49:53;32.90;;;20.55;;
61840;SDS011;47773;53.174;6.614;2023-05-07T04:52:18;34.33;;;20.30;;
61840;SDS011;47773;53.174;6.614;2023-05-07T04:54:44;35.15;;;19.85;;
61840;SDS011;47773;53.174;6.614;2023-05-07T04:57:10;44.72;;;21.27;;
61840;SDS011;47773;53.174;6.614;2023-05-07T04:59:35;34.45;;;20.50;;
61840;SDS011;47773;53.174;6.614;2023-05-07T05:02:01;31.35;;;20.45;;
61840;SDS011;47773;53.174;6.614;2023-05-07T05:04:29;30.55;;;18.90;;
61840;SDS011;47773;53.174;6.614;2023-05-07T05:06:55;31.48;;;19.27;;
61840;SDS011;47773;53.174;6.614;2023-05-07T05:09:20;29.92;;;19.83;;
61840;SDS011;47773;53.174;6.614;2023-05-07T05:11:46;33.67;;;19.92;;
61840;SDS011;47773;53.174;6.614;2023-05-07T05:14:12;28.75;;;19.48;;
61840;SDS011;47773;53.174;6.614;2023-05-07T05:16:37;27.73;;;18.73;;
61840;SDS011;47773;53.174;6.614;2023-05-07T05:19:03;30.67;;;19.52;;
61840;SDS011;47773;53.174;6.614;2023-05-07T05:21:29;30.05;;;18.95;;
61840;SDS011;47773;53.174;6.614;2023-05-07T05:23:54;35.25;;;19.33;;
61840;SDS011;47773;53.174;6.614;2023-05-07T05:26:20;32.00;;;19.52;;
61840;SDS011;47773;53.174;6.614;2023-05-07T05:28:46;32.60;;;19.25;;
61840;SDS011;47773;53.174;6.614;2023-05-07T05:31:12;33.92;;;19.25;;
61840;SDS011;47773;53.174;6.614;2023-05-07T05:33:38;29.48;;;18.65;;
61840;SDS011;47773;53.174;6.614;2023-05-07T05:36:05;31.75;;;19.40;;
61840;SDS011;47773;53.174;6.614;2023-05-07T05:38:31;30.77;;;18.85;;
61840;SDS011;47773;53.174;6.614;2023-05-07T05:40:57;30.40;;;19.65;;
61840;SDS011;47773;53.174;6.614;2023-05-07T05:43:22;29.85;;;19.10;;
61840;SDS011;47773;53.174;6.614;2023-05-07T05:45:48;30.13;;;19.27;;
61840;SDS011;47773;53.174;6.614;2023-05-07T05:48:13;30.45;;;19.30;;
61840;SDS011;47773;53.174;6.614;2023-05-07T05:50:39;30.80;;;19.55;;
61840;SDS011;47773;53.174;6.614;2023-05-07T05:53:06;28.90;;;18.48;;
61840;SDS011;47773;53.174;6.614;2023-05-07T05:55:32;29.30;;;17.83;;
61840;SDS011;47773;53.174;6.614;2023-05-07T05:57:59;29.63;;;19.27;;
61840;SDS011;47773;53.174;6.614;2023-05-07T06:00:28;28.95;;;19.15;;
61840;SDS011;47773;53.174;6.614;2023-05-07T06:02:54;27.13;;;18.27;;
61840;SDS011;47773;53.174;6.614;2023-05-07T06:05:20;28.60;;;17.92;;
61840;SDS011;47773;53.174;6.614;2023-05-07T06:07:45;27.10;;;18.70;;
61840;SDS011;47773;53.174;6.614;2023-05-07T06:10:11;31.23;;;19.40;;
61840;SDS011;47773;53.174;6.614;2023-05-07T06:12:37;27.05;;;17.70;;
61840;SDS011;47773;53.174;6.614;2023-05-07T06:15:03;26.50;;;17.55;;
61840;SDS011;47773;53.174;6.614;2023-05-07T06:17:29;27.15;;;17.65;;
61840;SDS011;47773;53.174;6.614;2023-05-07T06:19:55;28.20;;;18.33;;
61840;SDS011;47773;53.174;6.614;2023-05-07T06:22:21;24.25;;;17.08;;
61840;SDS011;47773;53.174;6.614;2023-05-07T06:24:46;31.52;;;19.67;;
61840;SDS011;47773;53.174;6.614;2023-05-07T06:27:12;31.55;;;18.23;;
61840;SDS011;47773;53.174;6.614;2023-05-07T06:29:38;28.17;;;18.38;;
61840;SDS011;47773;53.174;6.614;2023-05-07T06:32:07;27.33;;;17.17;;
61840;SDS011;47773;53.174;6.614;2023-05-07T06:34:34;27.92;;;17.75;;
61840;SDS011;47773;53.174;6.614;2023-05-07T06:36:59;29.73;;;18.13;;
61840;SDS011;47773;53.174;6.614;2023-05-07T06:39:25;27.55;;;18.00;;
61840;SDS011;47773;53.174;6.614;2023-05-07T06:41:50;30.30;;;17.88;;
61840;SDS011;47773;53.174;6.614;2023-05-07T06:44:16;27.65;;;17.13;;
61840;SDS011;47773;53.174;6.614;2023-05-07T06:46:42;26.70;;;17.42;;
61840;SDS011;47773;53.174;6.614;2023-05-07T06:49:07;28.08;;;16.90;;
61840;SDS011;47773;53.174;6.614;2023-05-07T06:51:33;27.38;;;17.73;;
61840;SDS011;47773;53.174;6.614;2023-05-07T06:53:59;25.58;;;17.15;;
61840;SDS011;47773;53.174;6.614;2023-05-07T06:56:24;27.05;;;18.13;;
61840;SDS011;47773;53.174;6.614;2023-05-07T06:58:50;26.48;;;17.48;;
61840;SDS011;47773;53.174;6.614;2023-05-07T07:01:16;25.30;;;17.08;;
61840;SDS011;47773;53.174;6.614;2023-05-07T07:03:42;29.77;;;18.02;;
61840;SDS011;47773;53.174;6.614;2023-05-07T07:06:07;29.55;;;17.77;;
61840;SDS011;47773;53.174;6.614;2023-05-07T07:08:33;30.10;;;18.52;;
61840;SDS011;47773;53.174;6.614;2023-05-07T07:10:59;26.42;;;17.80;;
61840;SDS011;47773;53.174;6.614;2023-05-07T07:13:25;29.27;;;18.02;;
61840;SDS011;47773;53.174;6.614;2023-05-07T07:15:51;27.73;;;17.85;;
61840;SDS011;47773;53.174;6.614;2023-05-07T07:18:17;27.40;;;17.70;;
61840;SDS011;47773;53.174;6.614;2023-05-07T07:20:43;28.40;;;18.27;;
61840;SDS011;47773;53.174;6.614;2023-05-07T07:23:09;28.05;;;18.23;;
61840;SDS011;47773;53.174;6.614;2023-05-07T07:25:35;31.08;;;19.10;;
61840;SDS011;47773;53.174;6.614;2023-05-07T07:28:01;31.55;;;18.73;;
61840;SDS011;47773;53.174;6.614;2023-05-07T07:30:26;33.30;;;19.08;;
61840;SDS011;47773;53.174;6.614;2023-05-07T07:32:52;29.02;;;18.38;;
61840;SDS011;47773;53.174;6.614;2023-05-07T07:35:18;31.95;;;18.48;;
61840;SDS011;47773;53.174;6.614;2023-05-07T07:37:44;29.52;;;17.90;;
61840;SDS011;47773;53.174;6.614;2023-05-07T07:40:10;30.95;;;19.42;;
61840;SDS011;47773;53.174;6.614;2023-05-07T07:42:36;31.52;;;18.05;;
61840;SDS011;47773;53.174;6.614;2023-05-07T07:45:02;35.22;;;18.85;;
61840;SDS011;47773;53.174;6.614;2023-05-07T07:47:28;30.90;;;19.35;;
61840;SDS011;47773;53.174;6.614;2023-05-07T07:49:54;29.65;;;19.20;;
61840;SDS011;47773;53.174;6.614;2023-05-07T07:52:19;29.02;;;18.00;;
61840;SDS011;47773;53.174;6.614;2023-05-07T07:54:45;31.52;;;18.92;;
61840;SDS011;47773;53.174;6.614;2023-05-07T07:57:11;31.45;;;19.30;;
61840;SDS011;47773;53.174;6.614;2023-05-07T07:59:36;27.52;;;18.02;;
61840;SDS011;47773;53.174;6.614;2023-05-07T08:02:02;32.78;;;19.75;;
61840;SDS011;47773;53.174;6.614;2023-05-07T08:04:28;29.48;;;19.25;;
61840;SDS011;47773;53.174;6.614;2023-05-07T08:06:53;30.15;;;18.60;;
61840;SDS011;47773;53.174;6.614;2023-05-07T08:09:19;29.60;;;19.35;;
61840;SDS011;47773;53.174;6.614;2023-05-07T08:11:45;31.80;;;19.15;;
61840;SDS011;47773;53.174;6.614;2023-05-07T08:14:11;28.23;;;18.30;;
61840;SDS011;47773;53.174;6.614;2023-05-07T08:16:37;29.58;;;18.40;;
61840;SDS011;47773;53.174;6.614;2023-05-07T08:19:02;31.50;;;19.70;;
61840;SDS011;47773;53.174;6.614;2023-05-07T08:21:28;31.75;;;19.02;;
61840;SDS011;47773;53.174;6.614;2023-05-07T08:23:54;30.25;;;18.90;;
61840;SDS011;47773;53.174;6.614;2023-05-07T08:26:19;29.55;;;18.90;;
61840;SDS011;47773;53.174;6.614;2023-05-07T08:28:45;28.35;;;18.23;;
61840;SDS011;47773;53.174;6.614;2023-05-07T08:31:11;34.83;;;19.83;;
61840;SDS011;47773;53.174;6.614;2023-05-07T08:33:36;30.15;;;18.52;;
61840;SDS011;47773;53.174;6.614;2023-05-07T08:36:03;32.90;;;20.15;;
61840;SDS011;47773;53.174;6.614;2023-05-07T08:38:31;32.88;;;19.05;;
61840;SDS011;47773;53.174;6.614;2023-05-07T08:40:56;28.58;;;19.02;;
61840;SDS011;47773;53.174;6.614;2023-05-07T08:43:22;30.73;;;17.83;;
61840;SDS011;47773;53.174;6.614;2023-05-07T08:45:53;31.77;;;18.92;;
61840;SDS011;47773;53.174;6.614;2023-05-07T08:48:24;30.30;;;18.23;;
61840;SDS011;47773;53.174;6.614;2023-05-07T08:50:50;29.45;;;18.67;;
61840;SDS011;47773;53.174;6.614;2023-05-07T08:53:16;30.42;;;18.63;;
61840;SDS011;47773;53.174;6.614;2023-05-07T08:55:42;31.00;;;18.67;;
61840;SDS011;47773;53.174;6.614;2023-05-07T08:58:08;30.75;;;19.48;;
61840;SDS011;47773;53.174;6.614;2023-05-07T09:00:34;29.50;;;18.98;;
61840;SDS011;47773;53.174;6.614;2023-05-07T09:03:02;31.65;;;18.77;;
61840;SDS011;47773;53.174;6.614;2023-05-07T09:05:28;32.60;;;18.60;;
61840;SDS011;47773;53.174;6.614;2023-05-07T09:07:53;35.65;;;19.05;;
61840;SDS011;47773;53.174;6.614;2023-05-07T09:10:21;27.67;;;18.38;;
61840;SDS011;47773;53.174;6.614;2023-05-07T09:12:46;29.88;;;18.45;;
61840;SDS011;47773;53.174;6.614;2023-05-07T09:15:13;32.85;;;18.80;;
61840;SDS011;47773;53.174;6.614;2023-05-07T09:17:38;27.85;;;18.25;;
61840;SDS011;47773;53.174;6.614;2023-05-07T09:20:06;27.67;;;18.63;;
61840;SDS011;47773;53.174;6.614;2023-05-07T09:22:32;30.42;;;18.20;;
61840;SDS011;47773;53.174;6.614;2023-05-07T09:24:58;29.88;;;18.63;;
61840;SDS011;47773;53.174;6.614;2023-05-07T09:27:24;31.23;;;18.90;;
61840;SDS011;47773;53.174;6.614;2023-05-07T09:29:51;30.23;;;19.02;;
61840;SDS011;47773;53.174;6.614;2023-05-07T09:32:17;28.27;;;18.63;;
61840;SDS011;47773;53.174;6.614;2023-05-07T09:34:42;32.83;;;20.42;;
61840;SDS011;47773;53.174;6.614;2023-05-07T09:37:08;31.40;;;19.23;;
61840;SDS011;47773;53.174;6.614;2023-05-07T09:39:43;29.13;;;18.40;;
61840;SDS011;47773;53.174;6.614;2023-05-07T09:42:11;31.05;;;20.02;;
61840;SDS011;47773;53.174;6.614;2023-05-07T09:44:37;28.52;;;19.35;;
61840;SDS011;47773;53.174;6.614;2023-05-07T09:47:07;31.88;;;18.92;;
61840;SDS011;47773;53.174;6.614;2023-05-07T09:53:14;31.48;;;19.00;;
61840;SDS011;47773;53.174;6.614;2023-05-07T09:55:42;28.15;;;18.63;;
61840;SDS011;47773;53.174;6.614;2023-05-07T09:58:08;32.75;;;19.38;;
61840;SDS011;47773;53.174;6.614;2023-05-07T10:00:36;31.38;;;18.83;;
61840;SDS011;47773;53.174;6.614;2023-05-07T10:03:05;27.65;;;17.67;;
61840;SDS011;47773;53.174;6.614;2023-05-07T10:05:32;29.33;;;18.75;;
61840;SDS011;47773;53.174;6.614;2023-05-07T10:07:58;27.55;;;18.40;;
61840;SDS011;47773;53.174;6.614;2023-05-07T10:10:26;28.38;;;18.30;;
61840;SDS011;47773;53.174;6.614;2023-05-07T10:12:52;37.00;;;20.10;;
61840;SDS011;47773;53.174;6.614;2023-05-07T10:15:19;28.92;;;17.85;;
61840;SDS011;47773;53.174;6.614;2023-05-07T10:17:45;31.95;;;16.95;;
61840;SDS011;47773;53.174;6.614;2023-05-07T10:20:11;27.15;;;17.27;;
61840;SDS011;47773;53.174;6.614;2023-05-07T10:22:38;32.72;;;17.83;;
61840;SDS011;47773;53.174;6.614;2023-05-07T10:25:17;25.30;;;17.83;;
61840;SDS011;47773;53.174;6.614;2023-05-07T10:27:50;26.70;;;18.35;;
61840;SDS011;47773;53.174;6.614;2023-05-07T10:30:26;27.65;;;16.63;;
61840;SDS011;47773;53.174;6.614;2023-05-07T10:33:10;28.27;;;17.35;;
61840;SDS011;47773;53.174;6.614;2023-05-07T10:35:39;31.08;;;17.33;;
61840;SDS011;47773;53.174;6.614;2023-05-07T10:38:07;24.80;;;16.95;;
61840;SDS011;47773;53.174;6.614;2023-05-07T10:40:34;24.27;;;16.73;;
61840;SDS011;47773;53.174;6.614;2023-05-07T10:43:01;29.42;;;17.33;;
61840;SDS011;47773;53.174;6.614;2023-05-07T10:45:29;29.08;;;17.77;;
61840;SDS011;47773;53.174;6.614;2023-05-07T10:50:41;25.50;;;16.50;;
61840;SDS011;47773;53.174;6.614;2023-05-07T10:55:43;23.05;;;15.80;;
61840;SDS011;47773;53.174;6.614;2023-05-07T10:58:26;27.45;;;16.23;;
61840;SDS011;47773;53.174;6.614;2023-05-07T11:01:00;22.55;;;15.80;;
61840;SDS011;47773;53.174;6.614;2023-05-07T11:03:26;25.35;;;17.08;;
61840;SDS011;47773;53.174;6.614;2023-05-07T11:06:09;24.90;;;16.42;;
61840;SDS011;47773;53.174;6.614;2023-05-07T11:14:09;23.25;;;15.48;;
61840;SDS011;47773;53.174;6.614;2023-05-07T11:16:35;21.75;;;14.85;;
61840;SDS011;47773;53.174;6.614;2023-05-07T11:19:01;21.33;;;15.85;;
61840;SDS011;47773;53.174;6.614;2023-05-07T11:21:37;21.08;;;15.15;;
61840;SDS011;47773;53.174;6.614;2023-05-07T11:24:10;22.30;;;16.30;;
61840;SDS011;47773;53.174;6.614;2023-05-07T11:26:45;19.38;;;15.20;;
61840;SDS011;47773;53.174;6.614;2023-05-07T11:29:13;22.58;;;15.30;;
61840;SDS011;47773;53.174;6.614;2023-05-07T11:31:40;22.02;;;15.75;;
61840;SDS011;47773;53.174;6.614;2023-05-07T11:34:06;20.63;;;15.63;;
61840;SDS011;47773;53.174;6.614;2023-05-07T11:36:33;24.58;;;15.52;;
61840;SDS011;47773;53.174;6.614;2023-05-07T11:38:59;19.92;;;15.13;;
61840;SDS011;47773;53.174;6.614;2023-05-07T11:41:34;23.77;;;14.73;;
61840;SDS011;47773;53.174;6.614;2023-05-07T11:44:02;18.58;;;14.50;;
61840;SDS011;47773;53.174;6.614;2023-05-07T11:46:28;21.60;;;15.45;;
61840;SDS011;47773;53.174;6.614;2023-05-07T11:48:54;20.05;;;14.82;;
61840;SDS011;47773;53.174;6.614;2023-05-07T11:51:21;20.67;;;14.88;;
61840;SDS011;47773;53.174;6.614;2023-05-07T11:53:49;20.88;;;15.18;;
61840;SDS011;47773;53.174;6.614;2023-05-07T11:56:16;20.70;;;14.60;;
61840;SDS011;47773;53.174;6.614;2023-05-07T11:58:43;22.30;;;14.93;;
61840;SDS011;47773;53.174;6.614;2023-05-07T12:01:10;21.98;;;15.32;;
61840;SDS011;47773;53.174;6.614;2023-05-07T12:03:39;20.52;;;15.63;;
61840;SDS011;47773;53.174;6.614;2023-05-07T12:06:10;20.38;;;13.77;;
61840;SDS011;47773;53.174;6.614;2023-05-07T12:08:38;21.55;;;14.90;;
61840;SDS011;47773;53.174;6.614;2023-05-07T12:11:09;18.17;;;14.23;;
61840;SDS011;47773;53.174;6.614;2023-05-07T12:13:39;22.20;;;14.45;;
61840;SDS011;47773;53.174;6.614;2023-05-07T12:16:06;19.80;;;14.88;;
61840;SDS011;47773;53.174;6.614;2023-05-07T12:18:33;21.23;;;14.60;;
61840;SDS011;47773;53.174;6.614;2023-05-07T12:20:59;18.60;;;14.25;;
61840;SDS011;47773;53.174;6.614;2023-05-07T12:23:25;26.02;;;15.27;;
61840;SDS011;47773;53.174;6.614;2023-05-07T12:25:52;18.30;;;15.02;;
61840;SDS011;47773;53.174;6.614;2023-05-07T12:28:18;20.50;;;14.98;;
61840;SDS011;47773;53.174;6.614;2023-05-07T12:30:48;19.20;;;15.02;;
61840;SDS011;47773;53.174;6.614;2023-05-07T12:33:18;17.65;;;14.05;;
61840;SDS011;47773;53.174;6.614;2023-05-07T12:35:48;18.80;;;14.07;;
61840;SDS011;47773;53.174;6.614;2023-05-07T12:38:15;21.63;;;15.05;;
61840;SDS011;47773;53.174;6.614;2023-05-07T12:40:46;18.70;;;14.77;;
61840;SDS011;47773;53.174;6.614;2023-05-07T12:43:26;19.52;;;14.60;;
61840;SDS011;47773;53.174;6.614;2023-05-07T12:45:53;19.55;;;14.68;;
61840;SDS011;47773;53.174;6.614;2023-05-07T12:48:20;19.50;;;13.77;;
61840;SDS011;47773;53.174;6.614;2023-05-07T12:50:50;22.42;;;14.30;;
61840;SDS011;47773;53.174;6.614;2023-05-07T12:53:17;19.48;;;14.77;;
61840;SDS011;47773;53.174;6.614;2023-05-07T12:55:49;18.48;;;14.90;;
61840;SDS011;47773;53.174;6.614;2023-05-07T12:58:17;18.77;;;14.80;;
61840;SDS011;47773;53.174;6.614;2023-05-07T13:00:47;17.38;;;14.20;;
61840;SDS011;47773;53.174;6.614;2023-05-07T13:03:21;23.05;;;16.55;;
61840;SDS011;47773;53.174;6.614;2023-05-07T13:05:52;19.95;;;14.43;;
61840;SDS011;47773;53.174;6.614;2023-05-07T13:08:23;18.15;;;14.23;;
61840;SDS011;47773;53.174;6.614;2023-05-07T13:10:53;15.60;;;13.13;;
61840;SDS011;47773;53.174;6.614;2023-05-07T13:13:19;22.38;;;14.18;;
61840;SDS011;47773;53.174;6.614;2023-05-07T13:15:46;18.23;;;14.48;;
61840;SDS011;47773;53.174;6.614;2023-05-07T13:18:12;16.65;;;13.27;;
61840;SDS011;47773;53.174;6.614;2023-05-07T13:20:38;20.35;;;14.73;;
61840;SDS011;47773;53.174;6.614;2023-05-07T13:23:03;18.85;;;13.30;;
61840;SDS011;47773;53.174;6.614;2023-05-07T13:25:30;18.58;;;13.63;;
61840;SDS011;47773;53.174;6.614;2023-05-07T13:27:59;17.65;;;13.38;;
61840;SDS011;47773;53.174;6.614;2023-05-07T13:30:24;17.27;;;13.10;;
61840;SDS011;47773;53.174;6.614;2023-05-07T13:32:50;17.52;;;13.07;;
61840;SDS011;47773;53.174;6.614;2023-05-07T13:35:17;17.50;;;13.60;;
61840;SDS011;47773;53.174;6.614;2023-05-07T13:37:42;18.73;;;13.38;;
61840;SDS011;47773;53.174;6.614;2023-05-07T13:40:08;18.35;;;14.35;;
61840;SDS011;47773;53.174;6.614;2023-05-07T13:42:34;21.63;;;14.40;;
61840;SDS011;47773;53.174;6.614;2023-05-07T13:45:00;19.25;;;15.02;;
61840;SDS011;47773;53.174;6.614;2023-05-07T13:47:28;17.00;;;14.02;;
61840;SDS011;47773;53.174;6.614;2023-05-07T13:49:53;19.40;;;14.30;;
61840;SDS011;47773;53.174;6.614;2023-05-07T13:52:19;19.90;;;13.90;;
61840;SDS011;47773;53.174;6.614;2023-05-07T13:54:45;17.10;;;13.18;;
61840;SDS011;47773;53.174;6.614;2023-05-07T13:57:11;16.85;;;13.45;;
61840;SDS011;47773;53.174;6.614;2023-05-07T13:59:36;18.65;;;13.48;;
61840;SDS011;47773;53.174;6.614;2023-05-07T14:02:02;20.08;;;13.93;;
61840;SDS011;47773;53.174;6.614;2023-05-07T14:04:28;18.13;;;13.82;;
61840;SDS011;47773;53.174;6.614;2023-05-07T14:06:53;15.07;;;12.55;;
61840;SDS011;47773;53.174;6.614;2023-05-07T14:09:19;19.33;;;13.20;;
61840;SDS011;47773;53.174;6.614;2023-05-07T14:11:45;17.85;;;12.60;;
61840;SDS011;47773;53.174;6.614;2023-05-07T14:14:12;17.30;;;13.63;;
61840;SDS011;47773;53.174;6.614;2023-05-07T14:16:38;15.77;;;12.60;;
61840;SDS011;47773;53.174;6.614;2023-05-07T14:19:04;16.08;;;12.63;;
61840;SDS011;47773;53.174;6.614;2023-05-07T14:21:29;17.35;;;12.88;;
61840;SDS011;47773;53.174;6.614;2023-05-07T14:23:55;17.63;;;13.90;;
61840;SDS011;47773;53.174;6.614;2023-05-07T14:26:21;17.00;;;12.88;;
61840;SDS011;47773;53.174;6.614;2023-05-07T14:28:48;18.35;;;13.23;;
61840;SDS011;47773;53.174;6.614;2023-05-07T14:31:14;20.23;;;12.77;;
61840;SDS011;47773;53.174;6.614;2023-05-07T14:33:40;19.13;;;13.30;;